Airfield :
LOGIN :

Register | Disclaimer

   EN    FR    IT 

 










Legend :    VFR   Marginal VFR   IFR   Intensive IFR   Very Intensive IFR
Visi :
Ceiling :
>= 8 km
>= 3000ft
5 to 8 km
1000 to 3000 ft
1500m to 5 km
500 to 1000 ft
800 to 1500m
200 to 500 ft
< 800m
< 200 ft
Symbols :   Thunderstorms  Fog  Heavy snow  Heavy precipitations  Wind > 20 kt
SIGMETs :     Misc.  Thunderstorms  Icing  Turbulence  Mountain Waves  Volcanic Ashes






- Airport Elevation : 49 ft
- IATA code : GLZ


EHGR - Gilze-Rijen Airbase

CURRENT METAR :
  • 140725Z AUTO 24010KT 210V270 9999 -RA FEW015CB SCT019 BKN028 06/04 Q0986 WHT

EXPIRED METARs :
  • 140717Z AUTO 23009KT 210V270 9999 -RA FEW015CB SCT024 BKN050 06/04 Q0986 WHT
  • 140655Z AUTO 24008KT 210V270 9999 BKN064 BKN100 05/04 Q0985 BLU
  • 140625Z AUTO 24009KT 220V280 9999 FEW014 05/04 Q0985 BLU
  • 140555Z AUTO 25007KT 9999 BKN100 05/04 Q0984 BLU
  • 140525Z AUTO 26007KT 9999 FEW009 SCT078 OVC090 05/04 Q0983 REDZ BLU
  • 140455Z AUTO 26005KT 9999 -RADZ FEW015CB SCT046 BKN052 05/05 Q0982 RERA REDZ BLU
  • 140443Z AUTO 26007KT 9999 -RADZ FEW015CB BKN040 OVC045 05/04 Q0982 BLU

Expired Forecast.



MET'MAP, your aeronautical weather chart ! - Copyright ORBIFLY December 2007 - Disclaimer

ORBIFLY MET'MAP TEAM :

Programming & Development : Alexandra Zaïnal
Concept & original design : Baudouin d'Aumeries
Assistance for programming : Marc-Olivier Méhu
Technical & hardware support : Manuel Goepfert

Contact : metmap@orbifly.com




SOURCES & CREDITS :

   NOAA